Time,TemperatureF,DewpointF,PressureIn,WindDirection,WindDirectionDegrees,WindSpeedMPH,WindSpeedGustMPH,Humidity,HourlyPrecipIn,Conditions,Clouds,dailyrainin,SoftwareType,DateUTC
2013-04-24 00:08:00,28.3,25.0,30.01,SSW,212,1.0,-999.0,87,-99.99,,,0.00,weatherlink.com 1.10,2013-04-24 05:08:00,
2013-04-24 00:23:00,29.1,25.0,30.00,WSW,240,5.0,-999.0,84,-99.99,,,0.00,weatherlink.com 1.10,2013-04-24 05:23:00,
2013-04-24 00:38:00,29.6,25.0,30.00,WSW,246,7.0,-999.0,82,-99.99,,,0.00,weatherlink.com 1.10,2013-04-24 05:38:00,
2013-04-24 00:53:00,29.4,25.0,30.00,WSW,242,4.0,-999.0,82,-99.99,,,0.00,weatherlink.com 1.10,2013-04-24 05:53:00,
2013-04-24 01:08:00,29.0,24.0,30.00,WSW,242,6.0,-999.0,82,-99.99,,,0.00,weatherlink.com 1.10,2013-04-24 06:08:00,
2013-04-24 01:23:00,29.0,24.0,29.99,WSW,240,7.0,-999.0,82,-99.99,,,0.00,weatherlink.com 1.10,2013-04-24 06:23:00,
2013-04-24 01:38:00,28.6,24.0,29.99,WSW,244,3.0,-999.0,83,-99.99,,,0.00,weatherlink.com 1.10,2013-04-24 06:38:00,
2013-04-24 01:53:00,28.3,24.0,29.98,WSW,244,5.0,-999.0,83,-99.99,,,0.00,weatherlink.com 1.10,2013-04-24 06:53:00,
2013-04-24 02:08:00,28.4,24.0,29.98,WSW,243,5.0,-999.0,83,-99.99,,,0.00,weatherlink.com 1.10,2013-04-24 07:08:00,
2013-04-24 02:23:00,28.9,24.0,29.97,SW,235,6.0,-999.0,82,-99.99,,,0.00,weatherlink.com 1.10,2013-04-24 07:23:00,
2013-04-24 02:38:00,29.0,24.0,29.97,WSW,248,6.0,-999.0,82,-99.99,,,0.00,weatherlink.com 1.10,2013-04-24 07:38:00,
2013-04-24 02:53:00,29.2,24.0,29.96,WSW,243,6.0,-999.0,81,-99.99,,,0.00,weatherlink.com 1.10,2013-04-24 07:53:00,
2013-04-24 03:08:00,29.2,24.0,29.96,WSW,252,6.0,-999.0,81,-99.99,,,0.00,weatherlink.com 1.10,2013-04-24 08:08:00,
2013-04-24 03:23:00,29.0,24.0,29.96,WSW,250,6.0,-999.0,81,-99.99,,,0.00,weatherlink.com 1.10,2013-04-24 08:23:00,
2013-04-24 03:38:00,29.0,24.0,29.96,SW,234,3.0,-999.0,81,-99.99,,,0.00,weatherlink.com 1.10,2013-04-24 08:38:00,
2013-04-24 03:53:00,28.7,24.0,29.96,WSW,237,5.0,-999.0,82,-99.99,,,0.00,weatherlink.com 1.10,2013-04-24 08:53:00,
2013-04-24 04:08:00,28.5,24.0,29.96,WSW,252,5.0,-999.0,82,-99.99,,,0.00,weatherlink.com 1.10,2013-04-24 09:08:00,
2013-04-24 04:23:00,28.5,24.0,29.96,WSW,246,4.0,-999.0,82,-99.99,,,0.00,weatherlink.com 1.10,2013-04-24 09:23:00,
2013-04-24 04:38:00,28.1,24.0,29.95,WSW,244,7.0,-999.0,83,-99.99,,,0.00,weatherlink.com 1.10,2013-04-24 09:38:00,
2013-04-24 04:53:00,28.0,24.0,29.95,WSW,246,3.0,-999.0,83,-99.99,,,0.00,weatherlink.com 1.10,2013-04-24 09:53:00,
2013-04-24 05:08:00,27.4,23.0,29.95,WSW,238,5.0,-999.0,84,-99.99,,,0.00,weatherlink.com 1.10,2013-04-24 10:08:00,
2013-04-24 05:23:00,27.0,23.0,29.94,SW,222,2.0,-999.0,85,-99.99,,,0.00,weatherlink.com 1.10,2013-04-24 10:23:00,
2013-04-24 05:38:00,27.0,23.0,29.94,SW,219,6.0,-999.0,85,-99.99,,,0.00,weatherlink.com 1.10,2013-04-24 10:38:00,
2013-04-24 05:53:00,26.8,23.0,29.93,WSW,243,6.0,-999.0,85,-99.99,,,0.00,weatherlink.com 1.10,2013-04-24 10:53:00,
2013-04-24 06:08:00,26.7,23.0,29.93,SSW,207,2.0,-999.0,84,-99.99,,,0.00,weatherlink.com 1.10,2013-04-24 11:08:00,
2013-04-24 06:23:00,26.3,22.0,29.93,WSW,240,3.0,-999.0,85,-99.99,,,0.00,weatherlink.com 1.10,2013-04-24 11:23:00,
2013-04-24 06:38:00,26.7,23.0,29.92,SW,219,4.0,-999.0,85,-99.99,,,0.00,weatherlink.com 1.10,2013-04-24 11:38:00,
2013-04-24 06:53:00,26.9,23.0,29.92,SSW,195,6.0,-999.0,84,-99.99,,,0.00,weatherlink.com 1.10,2013-04-24 11:53:00,
2013-04-24 07:08:00,26.5,22.0,29.91,South,190,9.0,-999.0,84,-99.99,,,0.00,weatherlink.com 1.10,2013-04-24 12:08:00,
2013-04-24 07:23:00,27.3,23.0,29.91,SSW,206,6.0,-999.0,84,-99.99,,,0.00,weatherlink.com 1.10,2013-04-24 12:23:00,
2013-04-24 07:38:00,28.5,24.0,29.90,SSW,198,6.0,-999.0,82,-99.99,,,0.00,weatherlink.com 1.10,2013-04-24 12:38:00,
2013-04-24 07:53:00,29.5,24.0,29.89,SSW,207,9.0,-999.0,80,-99.99,,,0.00,weatherlink.com 1.10,2013-04-24 12:53:00,
2013-04-24 08:08:00,30.6,25.0,29.89,SW,221,8.0,-999.0,79,-99.99,,,0.00,weatherlink.com 1.10,2013-04-24 13:08:00,
2013-04-24 08:23:00,30.8,26.0,29.90,SW,223,1.0,-999.0,81,-99.99,,,0.00,weatherlink.com 1.10,2013-04-24 13:23:00,
2013-04-24 08:38:00,31.6,26.0,29.90,SW,233,2.0,-999.0,79,-99.99,,,0.00,weatherlink.com 1.10,2013-04-24 13:38:00,
2013-04-24 08:53:00,32.8,27.0,29.89,SSW,202,10.0,-999.0,78,-99.99,,,0.00,weatherlink.com 1.10,2013-04-24 13:53:00,
2013-04-24 09:08:00,32.8,27.0,29.90,West,261,7.0,-999.0,78,-99.99,,,0.00,weatherlink.com 1.10,2013-04-24 14:08:00,
2013-04-24 09:23:00,33.5,27.0,29.89,SW,232,8.0,-999.0,77,-99.99,,,0.00,weatherlink.com 1.10,2013-04-24 14:23:00,
2013-04-24 09:38:00,33.7,27.0,29.88,West,277,10.0,-999.0,76,-99.99,,,0.00,weatherlink.com 1.10,2013-04-24 14:38:00,
2013-04-24 09:53:00,33.9,27.0,29.87,SW,229,6.0,-999.0,77,-99.99,,,0.00,weatherlink.com 1.10,2013-04-24 14:53:00,
2013-04-24 10:23:00,34.9,28.0,29.86,South,188,8.0,-999.0,76,-99.99,,,0.00,weatherlink.com 1.10,2013-04-24 15:23:00,
2013-04-24 10:38:00,35.9,28.0,29.86,SSW,207,1.0,-999.0,74,-99.99,,,0.00,weatherlink.com 1.10,2013-04-24 15:38:00,
2013-04-24 10:53:00,36.5,29.0,29.86,SSW,202,4.0,-999.0,75,-99.99,,,0.00,weatherlink.com 1.10,2013-04-24 15:53:00,
2013-04-24 11:08:00,36.9,29.0,29.86,SW,215,8.0,-999.0,74,-99.99,,,0.00,weatherlink.com 1.10,2013-04-24 16:08:00,
2013-04-24 11:23:00,37.8,30.0,29.86,WSW,257,5.0,-999.0,74,-99.99,,,0.00,weatherlink.com 1.10,2013-04-24 16:23:00,
2013-04-24 11:38:00,37.2,30.0,29.86,South,185,8.0,-999.0,75,-99.99,,,0.00,weatherlink.com 1.10,2013-04-24 16:38:00,
2013-04-24 11:53:00,37.5,30.0,29.86,WSW,241,6.0,-999.0,75,-99.99,,,0.00,weatherlink.com 1.10,2013-04-24 16:53:00,
2013-04-24 12:08:00,38.2,31.0,29.86,WSW,238,5.0,-999.0,75,-99.99,,,0.00,weatherlink.com 1.10,2013-04-24 17:08:00,
2013-04-24 12:23:00,38.1,31.0,29.86,SW,229,1.0,-999.0,76,-99.99,,,0.00,weatherlink.com 1.10,2013-04-24 17:23:00,
2013-04-24 12:38:00,38.7,31.0,29.87,WSW,244,6.0,-999.0,75,-99.99,,,0.00,weatherlink.com 1.10,2013-04-24 17:38:00,
2013-04-24 12:53:00,37.2,31.0,29.87,West,259,5.0,-999.0,78,-99.99,,,0.00,weatherlink.com 1.10,2013-04-24 17:53:00,
2013-04-24 13:08:00,36.3,32.0,29.87,West,268,9.0,-999.0,84,-99.99,,,0.00,weatherlink.com 1.10,2013-04-24 18:08:00,
2013-04-24 13:23:00,33.8,32.0,29.88,West,265,7.0,-999.0,91,-99.99,,,0.00,weatherlink.com 1.10,2013-04-24 18:23:00,
2013-04-24 13:38:00,33.0,32.0,29.88,West,267,6.0,-999.0,94,-99.99,,,0.00,weatherlink.com 1.10,2013-04-24 18:38:00,
2013-04-24 13:53:00,33.2,32.0,29.88,West,276,5.0,-999.0,94,-99.99,,,0.00,weatherlink.com 1.10,2013-04-24 18:53:00,
2013-04-24 14:08:00,33.3,32.0,29.88,West,280,4.0,-999.0,95,-99.99,,,0.00,weatherlink.com 1.10,2013-04-24 19:08:00,
2013-04-24 14:23:00,33.7,33.0,29.88,WNW,284,1.0,-999.0,95,-99.99,,,0.00,weatherlink.com 1.10,2013-04-24 19:23:00,
2013-04-24 14:38:00,34.3,33.0,29.88,West,277,7.0,-999.0,95,-99.99,,,0.00,weatherlink.com 1.10,2013-04-24 19:38:00,
2013-04-24 14:53:00,35.3,34.0,29.88,West,279,2.0,-999.0,95,-99.99,,,0.00,weatherlink.com 1.10,2013-04-24 19:53:00,
2013-04-24 15:08:00,36.4,35.0,29.87,West,276,0.0,-999.0,93,-99.99,,,0.00,weatherlink.com 1.10,2013-04-24 20:08:00,
2013-04-24 15:23:00,37.4,34.0,29.87,West,277,4.0,-999.0,88,-99.99,,,0.00,weatherlink.com 1.10,2013-04-24 20:23:00,
2013-04-24 15:38:00,38.2,34.0,29.87,WSW,249,4.0,-999.0,86,-99.99,,,0.00,weatherlink.com 1.10,2013-04-24 20:38:00,
2013-04-24 15:53:00,38.2,34.0,29.87,WSW,258,5.0,-999.0,86,-99.99,,,0.00,weatherlink.com 1.10,2013-04-24 20:53:00,
2013-04-24 16:08:00,38.6,34.0,29.87,SW,217,7.0,-999.0,84,-99.99,,,0.00,weatherlink.com 1.10,2013-04-24 21:08:00,
2013-04-24 16:23:00,38.7,34.0,29.87,WSW,252,8.0,-999.0,83,-99.99,,,0.00,weatherlink.com 1.10,2013-04-24 21:23:00,
2013-04-24 16:38:00,39.1,33.0,29.86,WSW,246,10.0,-999.0,78,-99.99,,,0.00,weatherlink.com 1.10,2013-04-24 21:38:00,
2013-04-24 16:53:00,37.0,32.0,29.87,West,259,6.0,-999.0,83,-99.99,,,0.00,weatherlink.com 1.10,2013-04-24 21:53:00,
2013-04-24 17:08:00,35.5,32.0,29.88,WSW,242,8.0,-999.0,87,-99.99,,,0.00,weatherlink.com 1.10,2013-04-24 22:08:00,
2013-04-24 17:23:00,33.3,32.0,29.89,WSW,255,5.0,-999.0,93,-99.99,,,0.00,weatherlink.com 1.10,2013-04-24 22:23:00,
2013-04-24 17:38:00,33.0,32.0,29.89,WNW,302,6.0,-999.0,94,-99.99,,,0.00,weatherlink.com 1.10,2013-04-24 22:38:00,
2013-04-24 17:53:00,32.8,31.0,29.89,WNW,300,6.0,-999.0,94,-99.99,,,0.00,weatherlink.com 1.10,2013-04-24 22:53:00,
2013-04-24 18:08:00,33.4,32.0,29.89,NW,306,11.0,-999.0,93,-99.99,,,0.00,weatherlink.com 1.10,2013-04-24 23:08:00,
2013-04-24 18:23:00,33.6,31.0,29.90,NW,312,10.0,-999.0,89,-99.99,,,0.00,weatherlink.com 1.10,2013-04-24 23:23:00,
2013-04-24 18:38:00,33.8,30.0,29.90,NW,317,9.0,-999.0,87,-99.99,,,0.00,weatherlink.com 1.10,2013-04-24 23:38:00,
2013-04-24 18:53:00,34.1,30.0,29.92,NNW,331,6.0,-999.0,86,-99.99,,,0.00,weatherlink.com 1.10,2013-04-24 23:53:00,
2013-04-24 19:08:00,33.8,30.0,29.92,NW,324,7.0,-999.0,85,-99.99,,,0.00,weatherlink.com 1.10,2013-04-25 00:08:00,
2013-04-24 19:23:00,33.6,30.0,29.92,NW,318,7.0,-999.0,86,-99.99,,,0.00,weatherlink.com 1.10,2013-04-25 00:23:00,
2013-04-24 19:38:00,33.6,29.0,29.93,NW,317,8.0,-999.0,84,-99.99,,,0.00,weatherlink.com 1.10,2013-04-25 00:38:00,
2013-04-24 19:53:00,33.1,26.0,29.93,NW,319,7.0,-999.0,76,-99.99,,,0.00,weatherlink.com 1.10,2013-04-25 00:53:00,
2013-04-24 20:08:00,32.7,26.0,29.93,NNW,331,6.0,-999.0,75,-99.99,,,0.00,weatherlink.com 1.10,2013-04-25 01:08:00,
2013-04-24 20:23:00,31.9,25.0,29.94,NW,323,5.0,-999.0,77,-99.99,,,0.00,weatherlink.com 1.10,2013-04-25 01:23:00,
2013-04-24 20:38:00,31.3,25.0,29.95,NW,321,6.0,-999.0,76,-99.99,,,0.00,weatherlink.com 1.10,2013-04-25 01:38:00,
2013-04-24 20:53:00,30.7,23.0,29.96,NNW,327,5.0,-999.0,74,-99.99,,,0.00,weatherlink.com 1.10,2013-04-25 01:53:00,
2013-04-24 21:08:00,29.9,24.0,29.96,NW,318,8.0,-999.0,77,-99.99,,,0.00,weatherlink.com 1.10,2013-04-25 02:08:00,
2013-04-24 21:23:00,29.6,23.0,29.97,NW,325,7.0,-999.0,76,-99.99,,,0.00,weatherlink.com 1.10,2013-04-25 02:23:00,
2013-04-24 21:38:00,29.2,23.0,29.98,NNW,327,6.0,-999.0,78,-99.99,,,0.00,weatherlink.com 1.10,2013-04-25 02:38:00,
2013-04-24 21:53:00,29.0,23.0,29.99,NW,325,6.0,-999.0,78,-99.99,,,0.00,weatherlink.com 1.10,2013-04-25 02:53:00,
2013-04-24 22:13:00,28.5,23.0,30.00,NW,325,3.0,-999.0,79,-99.99,,,0.00,weatherlink.com 1.10,2013-04-25 03:13:00,
2013-04-24 22:23:00,28.1,23.0,30.00,NNW,329,2.0,-999.0,80,-99.99,,,0.00,weatherlink.com 1.10,2013-04-25 03:23:00,
2013-04-24 22:38:00,27.9,23.0,30.00,NNW,327,6.0,-999.0,81,-99.99,,,0.00,weatherlink.com 1.10,2013-04-25 03:38:00,
2013-04-24 22:53:00,27.7,23.0,30.00,NW,319,3.0,-999.0,81,-99.99,,,0.00,weatherlink.com 1.10,2013-04-25 03:53:00,
2013-04-24 23:08:00,27.4,23.0,30.01,NW,319,5.0,-999.0,82,-99.99,,,0.00,weatherlink.com 1.10,2013-04-25 04:08:00,
2013-04-24 23:23:00,27.3,22.0,30.01,NW,319,6.0,-999.0,80,-99.99,,,0.00,weatherlink.com 1.10,2013-04-25 04:23:00,
2013-04-24 23:38:00,27.0,22.0,30.01,NW,310,5.0,-999.0,80,-99.99,,,0.00,weatherlink.com 1.10,2013-04-25 04:38:00,
2013-04-24 23:53:00,26.6,21.0,30.01,NW,326,6.0,-999.0,80,-99.99,,,0.00,weatherlink.com 1.10,2013-04-25 04:53:00,